Time;durP1;ratioP1;P1;durP2;ratioP2;P2;SDS_P1;SDS_P2;PMS_P1;PMS_P2;Temp;Humidity;BMP_temperature;BMP_pressure;BME280_temperature;BME280_humidity;BME280_pressure;Samples;Min_cycle;Max_cycle;Signal;HPM_P1;HPM_P2
2022/07/25 00:01:39;;;;;;;;;;;25.20;87.30;;;;;;5057116;28;20032;-62
2022/07/25 00:04:07;;;;;;;10.45;7.13;;;25.20;87.70;;;;;;5056532;28;20289;-62
2022/07/25 00:06:33;;;;;;;7.85;6.72;;;25.20;87.80;;;;;;5056760;28;20078;-61
2022/07/25 00:08:59;;;;;;;;;;;25.10;88.00;;;;;;5057132;28;20051;-62
2022/07/25 00:11:24;;;;;;;10.88;6.85;;;25.10;88.30;;;;;;5056514;28;19931;-62
2022/07/25 00:13:50;;;;;;;;;;;25.10;88.40;;;;;;5056820;28;20024;-61
2022/07/25 00:16:15;;;;;;;10.70;6.50;;;25.00;88.50;;;;;;5056661;28;19904;-62
2022/07/25 00:18:41;;;;;;;;;;;25.00;88.60;;;;;;5057052;28;20385;-61
2022/07/25 00:21:06;;;;;;;8.18;6.72;;;24.90;88.80;;;;;;5056285;28;19904;-63
2022/07/25 00:23:32;;;;;;;10.60;6.57;;;24.90;88.90;;;;;;5056345;28;20033;-62
2022/07/25 00:25:58;;;;;;;;;;;24.90;89.20;;;;;;5056502;28;20428;-62
2022/07/25 00:28:24;;;;;;;10.00;6.70;;;24.80;89.50;;;;;;5056740;28;19909;-62
2022/07/25 00:30:49;;;;;;;;;;;24.90;89.70;;;;;;5056628;28;20469;-62
2022/07/25 00:33:14;;;;;;;9.30;6.43;;;24.80;88.80;;;;;;5056030;28;19904;-61
2022/07/25 00:35:40;;;;;;;;;;;24.80;88.70;;;;;;5056364;28;20025;-63
2022/07/25 00:38:05;;;;;;;8.30;6.45;;;24.80;89.00;;;;;;5056202;28;19912;-63
2022/07/25 00:40:31;;;;;;;;;;;24.80;89.80;;;;;;5056550;28;20040;-62
2022/07/25 00:42:56;;;;;;;8.02;6.85;;;24.80;89.40;;;;;;5056147;28;20358;-61
2022/07/25 00:45:22;;;;;;;;;;;24.80;89.80;;;;;;5056255;28;20174;-57
2022/07/25 00:47:47;;;;;;;9.07;7.20;;;24.70;90.20;;;;;;5056222;28;19916;-62
2022/07/25 00:50:13;;;;;;;;;;;24.60;91.20;;;;;;5056119;28;20104;-61
2022/07/25 00:52:38;;;;;;;9.60;7.38;;;24.30;92.00;;;;;;5055809;28;19905;-63
2022/07/25 00:55:04;;;;;;;;;;;24.20;92.90;;;;;;5056427;28;20021;-62
2022/07/25 00:57:30;;;;;;;10.13;7.57;;;24.10;94.00;;;;;;5055936;28;19958;-60
2022/07/25 00:59:55;;;;;;;;;;;24.10;94.70;;;;;;5055902;28;20514;-62
2022/07/25 01:02:21;;;;;;;9.23;7.15;;;24.00;95.70;;;;;;5055744;28;19954;-62
2022/07/25 01:04:47;;;;;;;;;;;23.90;96.20;;;;;;5054513;28;20033;-62
2022/07/25 01:07:13;;;;;;;9.25;7.07;;;23.90;97.00;;;;;;5055837;28;19995;-61
2022/07/25 01:09:38;;;;;;;;;;;23.80;97.40;;;;;;5055881;28;20021;-63
2022/07/25 01:12:04;;;;;;;7.43;6.70;;;23.70;97.90;;;;;;5055524;28;19916;-62
2022/07/25 01:14:30;;;;;;;;;;;23.70;98.20;;;;;;5055756;28;20074;-63
2022/07/25 01:16:56;;;;;;;9.88;6.90;;;23.70;98.70;;;;;;5055105;28;19996;-61
2022/07/25 01:19:21;;;;;;;;;;;23.70;99.20;;;;;;5055703;28;20036;-61
2022/07/25 01:21:47;;;;;;;8.98;7.13;;;23.70;99.60;;;;;;5055133;28;19905;-62
2022/07/25 01:24:12;;;;;;;;;;;23.70;99.90;;;;;;5055575;28;20358;-62
2022/07/25 01:26:38;;;;;;;8.93;7.25;;;23.70;99.90;;;;;;5054864;28;19947;-61
2022/07/25 01:29:04;;;;;;;;;;;23.60;99.90;;;;;;5053899;28;20027;-62
2022/07/25 01:31:29;;;;;;;10.55;7.85;;;23.50;99.90;;;;;;5054917;28;19905;-61
2022/07/25 01:33:55;;;;;;;;;;;23.50;99.90;;;;;;5053970;28;20025;-62
2022/07/25 01:36:20;;;;;;;8.65;7.20;;;23.40;99.90;;;;;;5055082;28;19905;-62
2022/07/25 01:38:46;;;;;;;;;;;23.40;99.90;;;;;;5055401;28;20428;-62
2022/07/25 01:41:11;;;;;;;9.35;6.78;;;23.40;99.90;;;;;;5055112;28;20007;-63
2022/07/25 01:43:37;;;;;;;;;;;23.40;99.90;;;;;;5055487;28;20117;-62
2022/07/25 01:46:02;;;;;;;9.02;7.43;;;23.40;99.90;;;;;;5054857;28;19904;-61
2022/07/25 01:48:28;;;;;;;;;;;23.50;99.90;;;;;;5054960;28;20033;-61
2022/07/25 01:50:53;;;;;;;9.40;7.50;;;23.50;99.90;;;;;;5054590;28;19958;-61
2022/07/25 01:53:19;;;;;;;;;;;23.50;99.90;;;;;;5055264;28;20039;-61
2022/07/25 01:55:45;;;;;;;9.00;7.55;;;23.50;99.90;;;;;;5054556;28;19904;-62
2022/07/25 01:58:10;;;;;;;;;;;23.60;99.90;;;;;;5055322;28;20048;-61
2022/07/25 02:00:36;;;;;;;9.60;7.38;;;23.60;99.90;;;;;;5054747;28;20425;-61
2022/07/25 02:05:45;;;;;;;8.27;6.80;;;23.50;99.90;;;;;;5054417;28;20396;-61
2022/07/25 02:08:11;;;;;;;9.25;7.20;;;23.50;99.90;;;;;;5054625;28;20033;-61
2022/07/25 02:10:36;;;;;;;;;;;23.50;99.90;;;;;;5054517;28;20033;-61
2022/07/25 02:13:02;;;;;;;11.93;7.28;;;23.50;99.90;;;;;;5054219;28;19909;-61
2022/07/25 02:15:28;;;;;;;10.55;7.22;;;23.40;99.90;;;;;;5053973;28;20028;-61
2022/07/25 02:17:53;;;;;;;;;;;23.40;99.90;;;;;;5053524;28;20036;-61
2022/07/25 02:20:19;;;;;;;10.10;7.00;;;23.40;99.90;;;;;;5052841;28;20361;-62
2022/07/25 02:22:44;;;;;;;13.02;7.68;;;23.30;99.90;;;;;;5053994;28;20384;-62
2022/07/25 02:25:10;;;;;;;9.07;6.82;;;23.30;99.90;;;;;;5054399;28;20025;-61
2022/07/25 02:27:35;;;;;;;;;;;23.30;99.90;;;;;;5052774;28;20017;-61
2022/07/25 02:30:01;;;;;;;7.82;6.93;;;23.30;99.90;;;;;;5054051;28;20361;-63
2022/07/25 02:32:26;;;;;;;;;;;23.30;99.90;;;;;;5054024;28;20025;-62
2022/07/25 02:34:52;;;;;;;8.20;7.35;;;23.30;99.90;;;;;;5053635;28;19948;-62
2022/07/25 02:37:18;;;;;;;8.27;6.85;;;23.40;99.90;;;;;;5053303;28;20032;-62
2022/07/25 02:39:43;;;;;;;;;;;23.30;99.90;;;;;;5053816;28;20037;-62
2022/07/25 02:42:08;;;;;;;7.85;6.72;;;23.40;99.90;;;;;;5053502;28;19905;-62
2022/07/25 02:44:34;;;;;;;;;;;23.30;99.90;;;;;;5053436;28;20039;-62
2022/07/25 02:46:59;;;;;;;10.55;7.65;;;23.30;99.90;;;;;;5053322;28;19958;-62
2022/07/25 02:49:25;;;;;;;9.95;7.70;;;23.30;99.90;;;;;;5053544;28;20029;-61
2022/07/25 02:51:50;;;;;;;;;;;23.40;99.90;;;;;;5053711;28;20032;-61
2022/07/25 02:54:16;;;;;;;9.57;7.65;;;23.40;99.90;;;;;;5053089;28;19905;-61
2022/07/25 02:56:41;;;;;;;;;;;23.40;99.90;;;;;;5053810;28;20555;-61
2022/07/25 02:59:07;;;;;;;10.07;7.63;;;23.30;99.90;;;;;;5053319;28;19912;-62
2022/07/25 03:01:32;;;;;;;;;;;23.30;99.90;;;;;;5053570;28;20478;-62
2022/07/25 03:03:58;;;;;;;8.43;7.20;;;23.20;99.90;;;;;;5053558;28;20006;-63
2022/07/25 03:06:23;;;;;;;9.05;7.43;;;23.20;99.90;;;;;;5053550;28;20115;-63
2022/07/25 03:08:49;;;;;;;9.77;8.15;;;23.10;99.90;;;;;;5053195;28;20449;-61
2022/07/25 03:11:15;;;;;;;8.00;7.20;;;23.10;99.90;;;;;;5053017;28;20017;-62
2022/07/25 03:13:41;;;;;;;10.73;7.70;;;23.10;99.90;;;;;;5052900;28;20059;-62
2022/07/25 03:16:08;;;;;;;9.48;7.50;;;23.10;99.90;;;;;;5053011;28;20052;-61
2022/07/25 03:18:34;;;;;;;9.00;7.40;;;23.00;99.90;;;;;;5052769;28;20046;-61
2022/07/25 03:20:59;;;;;;;12.63;8.27;;;23.00;99.90;;;;;;5052837;28;20029;-61
2022/07/25 03:23:27;;;;;;;;;;;23.00;99.90;;;;;;5054172;28;20037;-61
2022/07/25 03:25:53;;;;;;;12.27;7.82;;;23.00;99.90;;;;;;5053380;28;19908;-62
2022/07/25 03:28:18;;;;;;;;;;;23.00;99.90;;;;;;5053400;28;20474;-62
2022/07/25 03:30:44;;;;;;;8.00;7.20;;;23.10;99.90;;;;;;5053618;28;19904;-62
2022/07/25 03:33:09;;;;;;;10.88;7.93;;;23.00;99.90;;;;;;5053139;28;20389;-63
2022/07/25 03:35:37;;;;;;;;;;;23.00;99.90;;;;;;5053520;28;20497;-62
2022/07/25 03:38:03;;;;;;;8.57;7.45;;;22.90;99.90;;;;;;5053079;28;19950;-62
2022/07/25 03:40:30;;;;;;;8.77;7.25;;;22.80;99.90;;;;;;5053107;28;20407;-62
2022/07/25 03:42:56;;;;;;;9.77;7.57;;;22.80;99.90;;;;;;5052528;28;20108;-61
2022/07/25 03:45:21;;;;;;;10.43;7.80;;;22.80;99.90;;;;;;5052987;28;20108;-61
2022/07/25 03:47:47;;;;;;;10.50;8.57;;;22.80;99.90;;;;;;5052681;28;20029;-61
2022/07/25 03:50:12;;;;;;;9.20;7.93;;;22.80;99.90;;;;;;5052750;28;20447;-61
2022/07/25 03:52:38;;;;;;;;;;;22.80;99.90;;;;;;5052836;28;20037;-61
2022/07/25 03:55:08;;;;;;;13.63;8.63;;;22.80;99.90;;;;;;5052379;28;19912;-62
2022/07/25 03:57:33;;;;;;;12.02;7.90;;;22.70;99.90;;;;;;5052487;28;20028;-61
2022/07/25 03:59:59;;;;;;;10.43;8.57;;;22.60;99.90;;;;;;5052452;28;20108;-61
2022/07/25 04:02:24;;;;;;;18.40;8.35;;;22.50;99.90;;;;;;5052334;28;20032;-62
2022/07/25 04:04:50;;;;;;;13.95;8.10;;;22.60;99.90;;;;;;5052140;28;20556;-62
2022/07/25 04:07:16;;;;;;;14.27;8.60;;;22.70;99.90;;;;;;5052647;28;20386;-60
2022/07/25 04:09:41;;;;;;;13.65;8.68;;;22.70;99.90;;;;;;5052897;28;20022;-60
2022/07/25 04:12:07;;;;;;;12.85;8.18;;;22.60;99.90;;;;;;5052752;28;20432;-61
2022/07/25 04:14:33;;;;;;;12.70;8.55;;;22.50;99.90;;;;;;5052390;28;20036;-61
2022/07/25 04:16:58;;;;;;;;;;;22.40;99.90;;;;;;5052821;28;20029;-60
2022/07/25 04:19:24;;;;;;;11.52;8.43;;;22.40;99.90;;;;;;5052181;28;19912;-59
2022/07/25 04:21:50;;;;;;;11.90;8.23;;;22.40;99.90;;;;;;5052363;28;20017;-61
2022/07/25 04:24:15;;;;;;;11.32;8.15;;;22.40;99.90;;;;;;5052537;28;20404;-59
2022/07/25 04:26:41;;;;;;;9.18;7.90;;;22.40;99.90;;;;;;5052447;28;20032;-61
2022/07/25 04:29:07;;;;;;;;;;;22.40;99.90;;;;;;5052767;28;20104;-62
2022/07/25 04:31:32;;;;;;;9.32;7.53;;;22.40;99.90;;;;;;5052201;28;19944;-62
2022/07/25 04:33:58;;;;;;;;;;;22.40;99.90;;;;;;5052846;28;20025;-62
2022/07/25 04:36:25;;;;;;;10.90;7.80;;;22.30;99.90;;;;;;5052035;28;19904;-62
2022/07/25 04:38:51;;;;;;;12.63;7.93;;;22.30;99.90;;;;;;5051942;28;20031;-62
2022/07/25 04:41:16;;;;;;;11.75;8.55;;;22.30;99.90;;;;;;5052720;28;20021;-62
2022/07/25 04:43:42;;;;;;;11.82;8.60;;;22.30;99.90;;;;;;5056547;28;20470;-62
2022/07/25 04:46:08;;;;;;;11.18;8.35;;;22.30;99.90;;;;;;5056605;28;20427;-62
2022/07/25 04:48:33;;;;;;;9.80;8.68;;;22.40;99.90;;;;;;5055458;28;20037;-62
2022/07/25 04:50:59;;;;;;;8.95;7.43;;;22.50;99.90;;;;;;5055858;28;20021;-60
2022/07/25 04:53:25;;;;;;;13.48;8.38;;;22.50;99.90;;;;;;5055868;28;20056;-62
2022/07/25 04:55:51;;;;;;;15.27;9.23;;;22.60;99.90;;;;;;5055831;28;20057;-62
2022/07/25 04:58:16;;;;;;;12.05;8.23;;;22.50;99.90;;;;;;5055725;28;20033;-61
2022/07/25 05:00:42;;;;;;;11.25;8.65;;;22.40;99.90;;;;;;5055615;28;20040;-63
2022/07/25 05:03:08;;;;;;;10.73;8.32;;;22.50;99.90;;;;;;5055853;28;20489;-64
2022/07/25 05:05:33;;;;;;;12.73;8.48;;;22.50;99.90;;;;;;5055100;28;20390;-62
2022/07/25 05:07:59;;;;;;;10.73;8.48;;;22.50;99.90;;;;;;5053956;28;20087;-65
2022/07/25 05:10:26;;;;;;;;;;;22.60;99.90;;;;;;5055823;28;20029;-63
2022/07/25 05:12:51;;;;;;;10.57;8.20;;;22.60;99.90;;;;;;5055339;28;19904;-65
2022/07/25 05:15:17;;;;;;;11.52;7.85;;;22.60;99.90;;;;;;5055143;28;20115;-65
2022/07/25 05:17:43;;;;;;;;;;;22.70;99.90;;;;;;5055670;28;20397;-64
2022/07/25 05:20:09;;;;;;;9.23;7.80;;;22.80;99.90;;;;;;5055752;28;19912;-63
2022/07/25 05:22:35;;;;;;;10.10;7.90;;;22.80;99.90;;;;;;5055500;28;20033;-64
2022/07/25 05:25:04;;;;;;;9.88;7.78;;;22.70;99.90;;;;;;5055314;28;20029;-64
2022/07/25 05:27:29;;;;;;;15.05;7.57;;;22.70;99.90;;;;;;5054855;28;20384;-63
2022/07/25 05:29:55;;;;;;;9.57;8.02;;;22.70;99.90;;;;;;5054994;28;20108;-64
2022/07/25 05:32:20;;;;;;;;;;;22.80;99.90;;;;;;5055175;28;20071;-64
2022/07/25 05:34:46;;;;;;;9.73;7.68;;;22.90;99.90;;;;;;5055326;28;19905;-64
2022/07/25 05:37:11;;;;;;;14.45;8.00;;;23.00;99.90;;;;;;5056290;28;20025;-63
2022/07/25 05:39:39;;;;;;;8.63;7.43;;;23.00;99.90;;;;;;5057085;28;20029;-63
2022/07/25 05:42:05;;;;;;;10.65;7.75;;;23.10;99.90;;;;;;5056933;28;20052;-64
2022/07/25 05:44:31;;;;;;;10.23;7.78;;;23.10;99.90;;;;;;5055343;28;20028;-64
2022/07/25 05:46:56;;;;;;;8.23;7.32;;;23.10;99.90;;;;;;5054343;28;20260;-63
2022/07/25 05:49:22;;;;;;;;;;;23.10;99.90;;;;;;5055016;28;20029;-65
2022/07/25 05:51:47;;;;;;;14.77;7.72;;;23.20;99.90;;;;;;5054836;28;19916;-64
2022/07/25 05:54:13;;;;;;;10.38;7.60;;;23.20;99.90;;;;;;5053772;28;20029;-64
2022/07/25 05:56:38;;;;;;;9.77;7.43;;;23.30;99.90;;;;;;5053360;28;20075;-65
2022/07/25 05:59:04;;;;;;;;;;;23.30;99.90;;;;;;5054976;28;20021;-64
2022/07/25 06:01:30;;;;;;;8.88;6.95;;;23.40;99.90;;;;;;5054947;28;20353;-63
2022/07/25 06:03:55;;;;;;;;;;;23.50;99.90;;;;;;5056703;28;20119;-63
2022/07/25 06:06:20;;;;;;;9.68;7.25;;;23.60;99.90;;;;;;5056005;28;19955;-64
2022/07/25 06:08:46;;;;;;;;;;;23.70;99.90;;;;;;5056631;28;20054;-63
2022/07/25 06:11:12;;;;;;;11.05;7.13;;;23.80;99.90;;;;;;5055759;28;19915;-63
2022/07/25 06:13:37;;;;;;;;;;;23.80;99.90;;;;;;5055379;28;20032;-63
2022/07/25 06:16:03;;;;;;;9.25;7.93;;;23.90;99.90;;;;;;5055145;28;19916;-64
2022/07/25 06:18:29;;;;;;;;;;;23.90;99.90;;;;;;5055178;28;20102;-62
2022/07/25 06:20:54;;;;;;;9.80;7.53;;;24.00;99.90;;;;;;5054547;28;19927;-62
2022/07/25 06:23:20;;;;;;;;;;;24.00;99.90;;;;;;5054980;28;20025;-61
2022/07/25 06:25:45;;;;;;;10.18;7.32;;;24.10;99.90;;;;;;5054090;28;19987;-60
2022/07/25 06:28:13;;;;;;;;;;;24.20;99.90;;;;;;5054464;28;20382;-61
2022/07/25 06:30:42;;;;;;;;;;;24.30;99.90;;;;;;5054359;28;20423;-62
2022/07/25 06:33:08;;;;;;;15.00;8.48;;;24.30;99.90;;;;;;5053693;28;19905;-62
2022/07/25 06:35:33;;;;;;;;;;;24.40;99.90;;;;;;5053902;28;20496;-61
2022/07/25 06:37:59;;;;;;;10.30;8.60;;;24.50;99.90;;;;;;5053455;28;20365;-62
2022/07/25 06:40:24;;;;;;;;;;;24.60;99.90;;;;;;5054209;28;20033;-61
2022/07/25 06:42:50;;;;;;;9.32;7.28;;;24.70;99.90;;;;;;5053789;28;19904;-56
2022/07/25 06:45:16;;;;;;;;;;;24.80;99.90;;;;;;5053908;28;20029;-60
2022/07/25 06:47:42;;;;;;;8.40;7.35;;;24.90;99.90;;;;;;5053583;28;19909;-62
2022/07/25 06:50:11;;;;;;;8.13;7.20;;;24.90;99.70;;;;;;5053542;28;20477;-61
2022/07/25 06:52:37;;;;;;;11.50;7.78;;;25.00;99.60;;;;;;5053402;28;20052;-60
2022/07/25 06:55:03;;;;;;;;;;;25.10;99.40;;;;;;5053750;28;20381;-61
2022/07/25 06:57:29;;;;;;;11.20;7.50;;;25.20;98.90;;;;;;5053440;28;19911;-60
2022/07/25 06:59:54;;;;;;;;;;;25.30;98.60;;;;;;5054074;28;20136;-61
2022/07/25 07:02:20;;;;;;;7.95;6.70;;;25.30;98.60;;;;;;5053507;28;19905;-61
2022/07/25 07:04:46;;;;;;;9.18;6.82;;;25.40;98.40;;;;;;5053005;28;20037;-59
2022/07/25 07:07:11;;;;;;;;;;;25.50;98.10;;;;;;5053735;28;20047;-61
2022/07/25 07:09:37;;;;;;;11.27;6.72;;;25.50;97.80;;;;;;5053275;28;19905;-62
2022/07/25 07:12:02;;;;;;;;;;;25.60;97.80;;;;;;5053081;28;20060;-62
2022/07/25 07:14:28;;;;;;;8.52;6.80;;;25.70;97.70;;;;;;5054136;28;19904;-62
2022/07/25 07:16:54;;;;;;;;;;;25.70;97.50;;;;;;5053679;28;20082;-62
2022/07/25 07:19:20;;;;;;;9.45;6.90;;;25.70;97.50;;;;;;5053317;28;20427;-62
2022/07/25 07:21:45;;;;;;;11.20;7.30;;;25.80;97.30;;;;;;5053094;28;20100;-62
2022/07/25 07:24:11;;;;;;;;;;;25.90;97.10;;;;;;5053466;28;20063;-62
2022/07/25 07:26:37;;;;;;;10.30;7.00;;;26.00;96.60;;;;;;5052939;28;19909;-61
2022/07/25 07:29:03;;;;;;;8.57;6.90;;;26.10;96.30;;;;;;5052935;28;20537;-62
2022/07/25 07:31:28;;;;;;;;;;;26.30;96.30;;;;;;5053903;28;20060;-61
2022/07/25 07:33:54;;;;;;;8.00;7.00;;;26.30;96.10;;;;;;5053018;28;19966;-62
2022/07/25 07:36:19;;;;;;;;;;;26.50;95.90;;;;;;5053069;28;20447;-62
2022/07/25 07:38:47;;;;;;;13.50;7.45;;;26.50;95.60;;;;;;5051324;28;19904;-62
2022/07/25 07:41:13;;;;;;;8.77;7.10;;;26.60;95.40;;;;;;5052513;28;20029;-62
2022/07/25 07:43:38;;;;;;;8.90;7.43;;;26.60;95.20;;;;;;5052784;28;20033;-60
2022/07/25 07:46:04;;;;;;;8.48;7.22;;;26.70;95.30;;;;;;5052589;28;20025;-62
2022/07/25 07:48:30;;;;;;;7.90;7.10;;;26.90;95.40;;;;;;5052338;28;20040;-62
2022/07/25 07:50:57;;;;;;;9.13;7.65;;;26.90;95.00;;;;;;5052543;28;20029;-62
2022/07/25 07:55:42;;;;;;;7.93;6.63;;;27.00;94.80;;;;;;5052471;28;20021;-61
2022/07/25 07:56:08;;;;;;;8.07;7.18;;;27.10;94.30;;;;;;5052209;28;20029;-61
2022/07/25 07:58:34;;;;;;;11.27;7.53;;;27.30;94.50;;;;;;5052952;28;20040;-61
2022/07/25 08:00:59;;;;;;;9.15;7.10;;;27.40;94.40;;;;;;5052375;28;20023;-62
2022/07/25 08:03:25;;;;;;;8.38;6.95;;;27.50;94.30;;;;;;5052327;28;20120;-61
2022/07/25 08:05:51;;;;;;;7.88;6.97;;;27.70;94.10;;;;;;5052379;28;20067;-61
2022/07/25 08:08:16;;;;;;;8.55;7.40;;;27.80;93.70;;;;;;5052113;28;20029;-59
2022/07/25 08:10:44;;;;;;;8.43;6.78;;;28.10;93.40;;;;;;5053104;28;20155;-60
2022/07/25 08:13:15;;;;;;;9.65;7.00;;;28.60;92.30;;;;;;5053758;28;20039;-60
2022/07/25 08:15:42;;;;;;;7.50;6.70;;;29.60;91.00;;;;;;5052670;28;20450;-59
2022/07/25 08:18:08;;;;;;;9.18;6.50;;;31.10;89.20;;;;;;5055074;28;20474;-61
2022/07/25 08:20:33;;;;;;;6.88;6.13;;;33.20;84.60;;;;;;5057097;28;20199;-61
2022/07/25 08:22:59;;;;;;;7.50;6.68;;;35.30;78.80;;;;;;5056259;28;20032;-58
2022/07/25 08:25:24;;;;;;;8.15;7.10;;;37.00;75.10;;;;;;5054667;28;20079;-59
2022/07/25 08:27:52;;;;;;;7.97;6.40;;;38.30;70.80;;;;;;5054580;28;20074;-61
2022/07/25 08:30:17;;;;;;;6.72;6.13;;;39.80;67.70;;;;;;5056052;28;20048;-59
2022/07/25 08:32:55;;;;;;;10.23;6.93;;;41.00;65.30;;;;;;5056081;28;20057;-59
2022/07/25 08:35:21;;;;;;;9.00;7.78;;;41.80;62.80;;;;;;5056237;28;20028;-59
2022/07/25 08:37:47;;;;;;;7.22;6.50;;;42.30;61.00;;;;;;5055899;28;20055;-59
2022/07/25 08:40:15;;;;;;;7.72;6.10;;;42.60;59.40;;;;;;5056251;28;20024;-60
2022/07/25 08:42:41;;;;;;;7.05;6.45;;;42.40;59.20;;;;;;5056137;28;20044;-60
2022/07/25 08:45:12;;;;;;;6.97;6.38;;;42.40;58.30;;;;;;5055608;28;20438;-60
2022/07/25 08:47:39;;;;;;;6.40;5.80;;;42.70;57.70;;;;;;5055931;28;20108;-59
2022/07/25 08:50:07;;;;;;;7.30;6.35;;;43.20;57.10;;;;;;5056005;28;20048;-59
2022/07/25 08:52:34;;;;;;;9.68;7.40;;;44.10;56.20;;;;;;5055533;28;20024;-60
2022/07/25 08:55:01;;;;;;;6.72;6.03;;;44.40;55.30;;;;;;5055552;28;20066;-60
2022/07/25 08:57:27;;;;;;;6.78;6.18;;;44.30;54.70;;;;;;5055526;28;20025;-61
2022/07/25 08:59:56;;;;;;;6.30;5.80;;;44.30;54.30;;;;;;5055390;28;20040;-60
2022/07/25 09:02:22;;;;;;;6.70;6.13;;;44.30;53.40;;;;;;5053987;28;20029;-59
2022/07/25 09:04:48;;;;;;;11.93;5.88;;;44.40;53.50;;;;;;5055480;28;20090;-59
2022/07/25 09:07:13;;;;;;;6.43;5.82;;;44.10;53.50;;;;;;5055372;28;20037;-60
2022/07/25 09:09:39;;;;;;;7.40;6.10;;;44.50;53.30;;;;;;5055369;28;20017;-60
2022/07/25 09:12:06;;;;;;;6.57;5.82;;;44.60;52.60;;;;;;5053842;28;20035;-60
2022/07/25 09:14:41;;;;;;;6.90;6.30;;;44.90;52.30;;;;;;5055092;28;20021;-60
2022/07/25 09:17:07;;;;;;;7.90;6.13;;;45.20;51.80;;;;;;5055398;28;20021;-60
2022/07/25 09:19:33;;;;;;;5.95;5.45;;;45.60;51.30;;;;;;5055353;28;20064;-57
2022/07/25 09:22:04;;;;;;;6.25;5.68;;;46.20;51.70;;;;;;5055518;28;20067;-59
2022/07/25 09:24:31;;;;;;;6.15;5.55;;;46.40;50.60;;;;;;5053871;28;20413;-60
2022/07/25 09:27:00;;;;;;;6.57;5.97;;;46.80;50.10;;;;;;5055253;28;20025;-58
2022/07/25 09:29:32;;;;;;;7.40;6.60;;;47.30;49.40;;;;;;5055010;28;20088;-60
2022/07/25 09:31:59;;;;;;;7.97;7.25;;;46.80;49.70;;;;;;5055365;28;20021;-59
2022/07/25 09:34:33;;;;;;;6.68;6.07;;;47.50;49.20;;;;;;5056269;28;20021;-60
2022/07/25 09:37:19;;;;;;;7.00;6.40;;;48.00;48.50;;;;;;5056265;28;20051;-60
2022/07/25 09:39:46;;;;;;;6.47;5.93;;;47.70;47.90;;;;;;5055468;28;20410;-60
2022/07/25 09:42:18;;;;;;;8.02;6.45;;;48.00;47.80;;;;;;5055725;28;20029;-60
2022/07/25 09:44:59;;;;;;;9.27;6.43;;;47.40;48.00;;;;;;5054836;28;20052;-60
2022/07/25 09:47:26;;;;;;;6.43;5.72;;;47.30;48.90;;;;;;5054983;28;20038;-60
2022/07/25 09:49:51;;;;;;;6.60;6.00;;;47.30;48.00;;;;;;5054938;28;20017;-61
2022/07/25 09:52:17;;;;;;;6.88;6.00;;;46.40;47.00;;;;;;5054844;28;20014;-60
2022/07/25 09:54:43;;;;;;;6.43;5.88;;;46.10;47.70;;;;;;5054522;28;20037;-61
2022/07/25 09:57:09;;;;;;;6.25;5.75;;;46.40;47.20;;;;;;5055068;28;20025;-60
2022/07/25 09:59:35;;;;;;;6.72;5.88;;;47.10;47.00;;;;;;5054602;28;20039;-60
2022/07/25 10:02:10;;;;;;;6.60;6.03;;;46.80;46.70;;;;;;5054738;28;20098;-59
2022/07/25 10:04:35;;;;;;;6.65;5.88;;;46.60;46.90;;;;;;5053037;28;20517;-60
2022/07/25 10:07:09;;;;;;;6.80;6.20;;;46.40;46.50;;;;;;5054434;28;20111;-59
2022/07/25 10:09:50;;;;;;;6.73;6.13;;;46.50;46.50;;;;;;5054300;28;20081;-59
2022/07/25 10:12:20;;;;;;;6.13;5.63;;;45.90;46.60;;;;;;5054194;28;20333;-59
2022/07/25 10:15:06;;;;;;;5.80;5.30;;;46.30;46.80;;;;;;5054189;28;20021;-58
2022/07/25 10:17:33;;;;;;;6.57;5.97;;;46.70;46.60;;;;;;5054424;28;20326;-60
2022/07/25 10:20:00;;;;;;;8.10;6.18;;;46.30;46.70;;;;;;5053990;28;20025;-60
2022/07/25 10:22:39;;;;;;;7.45;5.97;;;45.90;47.00;;;;;;5054204;28;20074;-60
2022/07/25 10:25:16;;;;;;;7.47;5.70;;;43.90;47.90;;;;;;5054029;28;20037;-57
2022/07/25 10:27:47;;;;;;;7.03;5.78;;;42.00;49.60;;;;;;5054401;28;20052;-60
2022/07/25 10:30:27;;;;;;;6.00;5.50;;;40.30;50.80;;;;;;5054554;28;20029;-59
2022/07/25 10:32:56;;;;;;;6.50;5.90;;;39.50;51.90;;;;;;5054158;28;20049;-59
2022/07/25 10:35:22;;;;;;;7.10;6.32;;;39.40;52.50;;;;;;5053731;28;20043;-60
2022/07/25 10:37:50;;;;;;;7.10;5.95;;;39.10;52.40;;;;;;5053749;28;20025;-61
2022/07/25 10:40:38;;;;;;;6.82;5.50;;;38.60;53.10;;;;;;5053335;28;20075;-61
2022/07/25 10:43:04;;;;;;;6.95;6.22;;;38.10;53.90;;;;;;5053802;28;20021;-59
2022/07/25 10:45:37;;;;;;;7.00;6.30;;;37.80;54.40;;;;;;5054234;28;20473;-62
2022/07/25 10:48:08;;;;;;;10.00;6.82;;;37.80;54.50;;;;;;5054224;28;20401;-60
2022/07/25 10:50:34;;;;;;;6.28;5.68;;;38.40;53.90;;;;;;5053592;28;20044;-61
2022/07/25 10:53:00;;;;;;;6.82;6.13;;;38.90;53.50;;;;;;5054036;28;20446;-60
2022/07/25 10:55:27;;;;;;;7.97;6.53;;;39.60;53.10;;;;;;5053471;28;20095;-60
2022/07/25 10:58:03;;;;;;;8.25;7.22;;;39.50;52.80;;;;;;5053855;28;20059;-61
2022/07/25 11:00:28;;;;;;;6.57;5.97;;;39.30;52.90;;;;;;5053398;28;20486;-61
2022/07/25 11:02:56;;;;;;;6.65;5.88;;;38.50;53.80;;;;;;5053692;28;20041;-61
2022/07/25 11:05:22;;;;;;;7.10;6.30;;;37.80;54.70;;;;;;5053432;28;20028;-61
2022/07/25 11:07:52;;;;;;;6.82;6.13;;;37.10;55.40;;;;;;5053425;28;20033;-61
2022/07/25 11:10:27;;;;;;;8.05;6.40;;;36.80;56.10;;;;;;5053704;28;20021;-60
2022/07/25 11:12:54;;;;;;;7.05;6.28;;;36.50;56.50;;;;;;5053758;28;20025;-63
2022/07/25 11:15:23;;;;;;;8.45;6.40;;;36.30;56.80;;;;;;5053460;28;20387;-61
2022/07/25 11:17:52;;;;;;;7.25;6.03;;;36.00;57.20;;;;;;5053591;28;20025;-60
2022/07/25 11:20:18;;;;;;;6.68;6.00;;;35.90;57.40;;;;;;5053371;28;20028;-60
2022/07/25 11:22:54;;;;;;;9.00;6.40;;;36.00;57.40;;;;;;5053798;28;20029;-61
2022/07/25 11:25:21;;;;;;;;;;;36.10;57.10;;;;;;5053829;28;20466;-61
2022/07/25 11:27:54;;;;;;;7.07;5.80;;;36.10;57.10;;;;;;5052902;28;19915;-59
2022/07/25 11:30:20;;;;;;;6.93;6.15;;;36.20;56.80;;;;;;5053084;28;20017;-60
2022/07/25 11:32:49;;;;;;;7.88;6.85;;;36.40;56.80;;;;;;5053294;28;20021;-60
2022/07/25 11:35:15;;;;;;;6.82;6.13;;;36.20;56.50;;;;;;5053461;28;20024;-62
2022/07/25 11:37:47;;;;;;;7.95;6.05;;;36.00;56.60;;;;;;5053383;28;20078;-61
2022/07/25 11:40:15;;;;;;;6.90;5.53;;;35.80;57.10;;;;;;5053636;28;20024;-61
2022/07/25 11:42:46;;;;;;;6.53;5.25;;;35.70;56.90;;;;;;5053039;28;20025;-59
2022/07/25 11:45:26;;;;;;;6.45;5.57;;;35.60;56.80;;;;;;5052890;28;20104;-61
2022/07/25 11:48:08;;;;;;;7.43;5.95;;;35.50;57.00;;;;;;5052958;28;20381;-61
2022/07/25 11:50:40;;;;;;;7.82;5.63;;;35.50;57.40;;;;;;5053491;28;20025;-60
2022/07/25 11:53:08;;;;;;;10.93;8.57;;;35.50;57.70;;;;;;5057196;28;20487;-60
2022/07/25 11:55:39;;;;;;;6.68;5.97;;;35.50;57.80;;;;;;5056817;28;20021;-62
2022/07/25 11:58:06;;;;;;;8.15;6.03;;;35.40;58.10;;;;;;5057149;28;20063;-60
2022/07/25 12:00:38;;;;;;;6.78;6.00;;;35.30;58.50;;;;;;5056837;28;20033;-61
2022/07/25 12:03:09;;;;;;;7.82;6.55;;;35.20;58.70;;;;;;5057043;28;20025;-60
2022/07/25 12:05:35;;;;;;;8.00;6.57;;;35.10;58.90;;;;;;5056325;28;20060;-62
2022/07/25 12:08:12;;;;;;;8.02;6.22;;;35.10;58.70;;;;;;5056399;28;20063;-62
2022/07/25 12:10:38;;;;;;;6.57;5.95;;;35.00;58.30;;;;;;5056585;28;20021;-62
2022/07/25 12:13:06;;;;;;;7.80;6.03;;;34.80;58.60;;;;;;5055158;28;20021;-62
2022/07/25 12:15:35;;;;;;;10.23;6.00;;;34.80;58.90;;;;;;5056392;28;20104;-62
2022/07/25 12:18:01;;;;;;;7.72;5.90;;;34.70;58.60;;;;;;5056871;28;20299;-62
2022/07/25 12:20:32;;;;;;;6.35;5.78;;;34.60;58.50;;;;;;5056576;28;20028;-62
2022/07/25 12:23:03;;;;;;;6.75;5.95;;;34.60;58.70;;;;;;5056840;28;20155;-62
2022/07/25 12:25:30;;;;;;;7.70;6.00;;;34.70;58.80;;;;;;5055101;28;20029;-62
2022/07/25 12:27:57;;;;;;;12.15;5.93;;;34.80;58.90;;;;;;5056347;28;20024;-62
2022/07/25 12:30:24;;;;;;;6.75;6.15;;;34.90;59.10;;;;;;5056460;28;20021;-62
2022/07/25 12:32:50;;;;;;;6.70;5.88;;;35.00;59.00;;;;;;5054582;28;20551;-61
2022/07/25 12:35:16;;;;;;;6.28;5.68;;;35.20;58.70;;;;;;5056081;28;20061;-61
2022/07/25 12:37:42;;;;;;;8.75;6.80;;;35.30;58.40;;;;;;5056126;28;20121;-61
2022/07/25 12:40:10;;;;;;;7.10;6.40;;;35.40;58.20;;;;;;5056509;28;20140;-61
2022/07/25 12:42:36;;;;;;;7.72;6.88;;;35.40;58.50;;;;;;5056789;28;20420;-61
2022/07/25 12:45:02;;;;;;;7.63;6.82;;;35.40;58.60;;;;;;5056449;28;20079;-62
2022/07/25 12:47:28;;;;;;;8.93;6.50;;;35.40;58.80;;;;;;5055719;28;20407;-61
2022/07/25 12:49:54;;;;;;;10.95;6.53;;;35.40;59.00;;;;;;5055661;28;20107;-60
2022/07/25 12:52:20;;;;;;;10.05;6.70;;;35.40;58.90;;;;;;5055782;28;20103;-61
2022/07/25 12:54:46;;;;;;;7.22;6.13;;;35.40;59.00;;;;;;5055817;28;20025;-62
2022/07/25 12:57:12;;;;;;;7.57;6.88;;;35.40;59.30;;;;;;5055586;28;20060;-61
2022/07/25 12:59:38;;;;;;;8.05;6.85;;;35.40;59.40;;;;;;5055717;28;20095;-61
2022/07/25 13:02:04;;;;;;;17.52;11.43;;;35.20;59.70;;;;;;5055481;28;20050;-63